createdAt,value
2023-05-20T00:02:09.115Z,59.62
2023-05-20T00:05:11.352Z,60.45
2023-05-20T00:08:12.712Z,61.13
2023-05-20T00:11:14.235Z,61.25
2023-05-20T00:14:15.732Z,60.22
2023-05-20T00:17:17.325Z,61.12
2023-05-20T00:20:19.461Z,61.60
2023-05-20T00:23:20.835Z,61.28
2023-05-20T00:26:22.481Z,61.57
2023-05-20T00:29:23.997Z,61.75
2023-05-20T00:32:25.467Z,62.33
2023-05-20T00:35:28.159Z,62.24
2023-05-20T00:38:29.606Z,61.91
2023-05-20T00:41:31.953Z,63.30
2023-05-20T00:44:33.439Z,63.14
2023-05-20T00:47:36.616Z,62.99
2023-05-20T00:50:39.369Z,63.22
2023-05-20T00:53:41.691Z,63.47
2023-05-20T00:56:43.273Z,63.32
2023-05-20T00:59:45.004Z,63.11
2023-05-20T01:02:46.474Z,64.22
2023-05-20T01:05:49.868Z,64.59
2023-05-20T01:08:51.263Z,64.76
2023-05-20T01:11:59.044Z,64.31
2023-05-20T01:15:06.933Z,64.80
2023-05-20T01:18:09.920Z,65.68
2023-05-20T01:21:15.169Z,64.73
2023-05-20T01:24:17.185Z,65.37
2023-05-20T01:27:20.157Z,65.18
2023-05-20T01:30:22.509Z,64.73
2023-05-20T01:33:25.745Z,65.31
2023-05-20T01:36:28.259Z,66.17
2023-05-20T01:39:31.614Z,66.01
2023-05-20T01:42:34.750Z,66.00
2023-05-20T01:45:37.445Z,66.35
2023-05-20T01:48:38.992Z,66.35
2023-05-20T01:51:40.621Z,66.60
2023-05-20T01:54:42.597Z,66.54
2023-05-20T01:57:44.105Z,66.06
2023-05-20T02:00:45.479Z,66.30
2023-05-20T02:03:46.854Z,66.82
2023-05-20T02:06:48.614Z,67.51
2023-05-20T02:09:50.620Z,67.08
2023-05-20T02:12:52.116Z,67.36
2023-05-20T02:15:53.547Z,66.79
2023-05-20T02:18:55.222Z,67.74
2023-05-20T02:21:56.739Z,68.25
2023-05-20T02:24:58.706Z,69.11
2023-05-20T02:28:00.227Z,68.66
2023-05-20T02:31:01.522Z,68.24
2023-05-20T02:34:03.653Z,68.75
2023-05-20T02:37:05.146Z,68.96
2023-05-20T02:40:09.540Z,68.16
2023-05-20T02:43:11.065Z,67.94
2023-05-20T02:46:12.696Z,67.57
2023-05-20T02:49:14.225Z,67.83
2023-05-20T02:52:15.731Z,68.52
2023-05-20T02:55:18.023Z,68.33
2023-05-20T02:58:25.665Z,69.15
2023-05-20T03:01:28.417Z,68.93
2023-05-20T03:04:31.010Z,68.11
2023-05-20T03:07:35.667Z,68.39
2023-05-20T03:10:38.298Z,68.57
2023-05-20T03:13:39.703Z,68.76
2023-05-20T03:16:41.081Z,69.42
2023-05-20T03:19:42.635Z,69.34
2023-05-20T03:22:44.021Z,69.16
2023-05-20T03:25:46.205Z,68.11
2023-05-20T03:28:47.601Z,69.50
2023-05-20T03:31:48.980Z,69.70
2023-05-20T03:34:50.510Z,69.73
2023-05-20T03:37:52.469Z,68.98
2023-05-20T03:40:54.659Z,68.43
2023-05-20T03:43:56.199Z,68.50
2023-05-20T03:46:57.670Z,68.79
2023-05-20T03:49:59.239Z,68.15
2023-05-20T03:53:00.712Z,68.08
2023-05-20T03:56:02.982Z,68.89
2023-05-20T03:59:05.136Z,68.76
2023-05-20T04:02:06.461Z,67.52
2023-05-20T04:05:09.982Z,67.85
2023-05-20T04:08:12.821Z,68.47
2023-05-20T04:11:14.985Z,68.04
2023-05-20T04:14:16.410Z,68.95
2023-05-20T04:17:17.900Z,68.56
2023-05-20T04:20:19.744Z,67.40
2023-05-20T04:23:21.055Z,67.93
2023-05-20T04:26:23.191Z,68.38
2023-05-20T04:29:24.909Z,68.46
2023-05-20T04:32:26.502Z,67.93
2023-05-20T04:35:28.806Z,68.35
2023-05-20T04:38:31.649Z,68.35
2023-05-20T04:41:34.723Z,68.15
2023-05-20T04:44:36.238Z,68.69
2023-05-20T04:47:38.145Z,68.21
2023-05-20T04:50:41.253Z,68.18
2023-05-20T04:53:44.668Z,68.79
2023-05-20T04:56:48.276Z,68.87
2023-05-20T04:59:49.603Z,68.54
2023-05-20T05:02:50.967Z,68.94
2023-05-20T05:05:55.896Z,68.74
2023-05-20T05:08:57.264Z,68.06
2023-05-20T05:11:59.349Z,68.70
2023-05-20T05:15:00.673Z,68.96
2023-05-20T05:18:02.194Z,67.79
2023-05-20T05:21:04.984Z,67.80
2023-05-20T05:24:06.782Z,68.14
2023-05-20T05:27:08.960Z,68.59
2023-05-20T05:30:10.962Z,68.97
2023-05-20T05:33:14.310Z,67.61
2023-05-20T05:36:15.793Z,68.22
2023-05-20T05:39:17.098Z,68.67
2023-05-20T05:42:19.189Z,68.87
2023-05-20T05:45:20.515Z,68.96
2023-05-20T05:48:22.440Z,68.00
2023-05-20T05:51:24.938Z,68.14
2023-05-20T05:54:26.438Z,68.12
2023-05-20T05:57:28.533Z,67.53
2023-05-20T06:00:29.936Z,66.33
2023-05-20T06:03:31.393Z,66.30
2023-05-20T06:06:33.487Z,67.02
2023-05-20T06:09:34.895Z,67.42
2023-05-20T06:12:37.031Z,66.97
2023-05-20T06:15:39.865Z,67.65
2023-05-20T06:18:41.389Z,68.02
2023-05-20T06:21:42.864Z,67.65
2023-05-20T06:24:44.210Z,66.81
2023-05-20T06:27:46.255Z,66.91
2023-05-20T06:30:47.648Z,67.38
2023-05-20T06:33:49.017Z,67.02
2023-05-20T06:36:50.511Z,66.44
2023-05-20T06:39:53.114Z,65.76
2023-05-20T06:42:55.276Z,66.11
2023-05-20T06:45:56.675Z,66.38
2023-05-20T06:48:58.769Z,65.77
2023-05-20T06:52:00.422Z,66.55
2023-05-20T06:55:02.327Z,65.44
2023-05-20T06:58:05.073Z,65.33
2023-05-20T07:01:06.903Z,65.82
2023-05-20T07:04:08.564Z,66.76
2023-05-20T07:07:10.564Z,66.96
2023-05-20T07:10:12.649Z,65.73
2023-05-20T07:13:15.528Z,65.39
2023-05-20T07:16:17.579Z,65.75
2023-05-20T07:19:19.524Z,65.89
2023-05-20T07:22:21.503Z,64.89
2023-05-20T07:25:23.190Z,65.56
2023-05-20T07:28:25.412Z,65.35
2023-05-20T07:31:27.003Z,65.63
2023-05-20T07:34:28.673Z,64.62
2023-05-20T07:37:30.444Z,64.59
2023-05-20T07:40:32.761Z,64.88
2023-05-20T07:43:36.923Z,64.68
2023-05-20T07:46:42.012Z,63.98
2023-05-20T07:49:46.892Z,63.50
2023-05-20T07:52:56.383Z,62.83
2023-05-20T07:55:59.771Z,63.04
2023-05-20T07:59:04.437Z,63.02
2023-05-20T08:02:07.916Z,61.91
2023-05-20T08:05:11.443Z,62.23
2023-05-20T08:08:14.237Z,62.24
2023-05-20T08:11:17.164Z,61.11
2023-05-20T08:14:21.258Z,62.01
2023-05-20T08:17:24.147Z,61.17
2023-05-20T08:20:27.865Z,58.98
2023-05-20T08:23:31.291Z,58.81
2023-05-20T08:26:35.549Z,58.67
2023-05-20T08:29:39.656Z,58.05
2023-05-20T08:32:42.780Z,58.08
2023-05-20T08:35:46.363Z,57.64
2023-05-20T08:38:49.299Z,57.54
2023-05-20T08:41:52.366Z,57.30
2023-05-20T08:44:57.543Z,57.65
2023-05-20T08:48:01.009Z,57.97
2023-05-20T08:51:05.018Z,56.23
2023-05-20T08:54:09.839Z,55.65
2023-05-20T08:57:13.944Z,55.06
2023-05-20T09:00:20.292Z,55.37
2023-05-20T09:03:24.352Z,56.20
2023-05-20T09:06:27.316Z,56.41
2023-05-20T09:09:30.887Z,55.44
2023-05-20T09:12:33.859Z,54.81
2023-05-20T09:15:39.213Z,54.07
2023-05-20T09:18:43.424Z,53.73
2023-05-20T09:21:48.068Z,54.45
2023-05-20T09:24:52.125Z,54.22
2023-05-20T09:27:54.976Z,54.07
2023-05-20T09:31:01.004Z,54.34
2023-05-20T09:34:04.783Z,54.86
2023-05-20T09:37:08.543Z,54.89
2023-05-20T09:40:15.281Z,54.96
2023-05-20T09:43:18.641Z,54.83
2023-05-20T09:46:22.954Z,53.97
2023-05-20T09:49:27.197Z,53.23
2023-05-20T09:52:31.120Z,53.48
2023-05-20T09:55:34.777Z,53.67
2023-05-20T09:58:38.033Z,53.37
2023-05-20T10:01:42.324Z,54.06
2023-05-20T10:04:50.232Z,54.22
2023-05-20T10:08:22.985Z,54.50
2023-05-20T10:11:34.514Z,54.92
2023-05-20T10:14:49.615Z,53.95
2023-05-20T10:18:02.625Z,54.53
2023-05-20T10:21:17.020Z,54.11
2023-05-20T10:24:31.310Z,54.32
2023-05-20T10:27:44.115Z,54.28
2023-05-20T10:30:51.254Z,52.94
2023-05-20T10:33:56.071Z,54.04
2023-05-20T10:37:00.351Z,53.17
2023-05-20T10:40:11.209Z,52.75
2023-05-20T10:43:15.460Z,51.58
2023-05-20T10:46:32.519Z,50.43
2023-05-20T10:49:42.271Z,51.37
2023-05-20T10:52:45.201Z,51.54
2023-05-20T10:55:53.408Z,51.56
2023-05-20T10:58:56.317Z,52.37
2023-05-20T11:01:59.235Z,52.09
2023-05-20T11:05:04.553Z,50.99
2023-05-20T11:08:20.536Z,49.37
2023-05-20T11:11:31.464Z,50.77
2023-05-20T11:14:34.277Z,50.43
2023-05-20T11:17:37.182Z,51.17
2023-05-20T11:20:41.335Z,49.41
2023-05-20T11:23:44.206Z,49.29
2023-05-20T11:26:47.134Z,47.74
2023-05-20T11:29:51.949Z,47.63
2023-05-20T11:32:59.318Z,47.77
2023-05-20T11:36:06.535Z,47.13
2023-05-20T11:39:14.853Z,47.06
2023-05-20T11:42:17.745Z,47.56
2023-05-20T11:45:20.482Z,48.26
2023-05-20T11:48:23.646Z,47.52
2023-05-20T11:51:28.698Z,47.60
2023-05-20T11:54:36.496Z,47.87
2023-05-20T11:57:39.279Z,48.81
2023-05-20T12:00:51.332Z,49.12
2023-05-20T12:03:58.182Z,47.47
2023-05-20T12:07:04.050Z,46.44
2023-05-20T12:10:08.294Z,44.77
2023-05-20T12:13:13.407Z,43.80
2023-05-20T12:16:16.328Z,43.22
2023-05-20T12:19:19.152Z,44.65
2023-05-20T12:22:23.427Z,44.60
2023-05-20T12:25:26.484Z,45.16
2023-05-20T12:28:29.296Z,45.90
2023-05-20T12:31:34.618Z,45.97
2023-05-20T12:34:37.915Z,44.30
2023-05-20T12:37:42.890Z,43.61
2023-05-20T12:40:45.810Z,43.12
2023-05-20T12:43:48.678Z,43.51
2023-05-20T12:46:51.720Z,43.74
2023-05-20T12:49:54.636Z,44.17
2023-05-20T12:52:58.762Z,44.08
2023-05-20T12:56:01.781Z,45.34
2023-05-20T12:59:04.564Z,45.32
2023-05-20T13:02:07.427Z,45.34
2023-05-20T13:05:11.309Z,44.94
2023-05-20T13:08:15.583Z,46.01
2023-05-20T13:11:18.459Z,45.24
2023-05-20T13:14:21.714Z,45.35
2023-05-20T13:17:24.528Z,45.71
2023-05-20T13:20:27.490Z,44.51
2023-05-20T13:23:31.726Z,44.25
2023-05-20T13:26:34.480Z,43.36
2023-05-20T13:29:37.205Z,44.16
2023-05-20T13:32:40.015Z,44.49
2023-05-20T13:35:42.841Z,44.39
2023-05-20T13:38:47.017Z,43.57
2023-05-20T13:41:49.842Z,45.06
2023-05-20T13:44:52.721Z,44.36
2023-05-20T13:47:55.711Z,43.87
2023-05-20T13:50:58.592Z,43.60
2023-05-20T13:54:02.705Z,43.76
2023-05-20T13:57:08.160Z,43.42
2023-05-20T14:00:12.020Z,42.00
2023-05-20T14:03:15.043Z,43.03
2023-05-20T14:06:18.940Z,43.58
2023-05-20T14:09:23.416Z,43.02
2023-05-20T14:12:26.354Z,44.19
2023-05-20T14:15:30.641Z,45.25
2023-05-20T14:18:33.389Z,45.69
2023-05-20T14:21:36.311Z,45.86
2023-05-20T14:24:40.434Z,45.27
2023-05-20T14:27:43.322Z,45.69
2023-05-20T14:30:46.292Z,45.39
2023-05-20T14:33:49.308Z,45.30
2023-05-20T14:36:52.377Z,45.66
2023-05-20T14:39:56.758Z,44.52
2023-05-20T14:42:59.728Z,44.98
2023-05-20T14:46:03.944Z,44.63
2023-05-20T14:49:06.742Z,43.93
2023-05-20T14:52:09.669Z,45.31
2023-05-20T14:55:13.892Z,45.14
2023-05-20T14:58:16.681Z,45.20
2023-05-20T15:01:19.654Z,44.97
2023-05-20T15:04:22.453Z,44.55
2023-05-20T15:07:25.196Z,45.06
2023-05-20T15:10:29.454Z,45.50
2023-05-20T15:13:32.204Z,44.92
2023-05-20T15:16:35.171Z,45.47
2023-05-20T15:19:41.243Z,45.78
2023-05-20T15:22:45.889Z,46.08
2023-05-20T15:25:50.544Z,45.94
2023-05-20T15:28:53.522Z,45.87
2023-05-20T15:31:56.435Z,45.92
2023-05-20T15:34:59.990Z,46.68
2023-05-20T15:38:02.820Z,46.28
2023-05-20T15:41:08.096Z,45.97
2023-05-20T15:44:10.876Z,46.19
2023-05-20T15:47:13.683Z,46.52
2023-05-20T15:50:17.212Z,47.19
2023-05-20T15:53:20.218Z,47.08
2023-05-20T15:56:24.539Z,47.26
2023-05-20T15:59:27.317Z,47.31
2023-05-20T16:02:32.859Z,47.85
2023-05-20T16:05:39.081Z,47.61
2023-05-20T16:08:41.976Z,47.89
2023-05-20T16:11:46.200Z,47.85
2023-05-20T16:14:49.020Z,48.90
2023-05-20T16:17:51.869Z,49.39
2023-05-20T16:20:54.640Z,49.99
2023-05-20T16:27:19.262Z,50.64
2023-05-20T16:30:22.175Z,49.64
2023-05-20T16:33:25.140Z,50.25
2023-05-20T16:36:28.042Z,49.92
2023-05-20T16:39:30.784Z,50.08
2023-05-20T16:42:35.051Z,50.07
2023-05-20T16:45:37.927Z,49.69
2023-05-20T16:48:41.191Z,49.67
2023-05-20T16:51:44.139Z,49.82
2023-05-20T16:54:47.084Z,50.33
2023-05-20T16:57:51.492Z,50.79
2023-05-20T17:00:55.060Z,50.48
2023-05-20T17:03:58.003Z,49.74
2023-05-20T17:07:01.654Z,50.20
2023-05-20T17:10:04.849Z,50.90
2023-05-20T17:13:09.131Z,51.13
2023-05-20T17:16:12.950Z,51.68
2023-05-20T17:22:20.822Z,51.24
2023-05-20T17:25:23.585Z,52.18
2023-05-20T17:28:27.812Z,51.77
2023-05-20T17:31:30.589Z,52.47
2023-05-20T17:34:33.483Z,52.59
2023-05-20T17:37:36.858Z,52.95
2023-05-20T17:40:39.662Z,52.89
2023-05-20T17:43:43.836Z,53.77
2023-05-20T17:46:46.820Z,53.20
2023-05-20T17:49:49.691Z,53.81
2023-05-20T17:52:52.460Z,53.67
2023-05-20T17:55:55.223Z,54.23
2023-05-20T17:58:59.651Z,54.53
2023-05-20T18:02:02.513Z,54.60
2023-05-20T18:05:06.668Z,54.78
2023-05-20T18:08:09.464Z,55.11
2023-05-20T18:11:12.247Z,55.09
2023-05-20T18:14:18.748Z,55.27
2023-05-20T18:17:21.589Z,55.21
2023-05-20T18:20:24.521Z,54.95
2023-05-20T18:23:27.458Z,55.73
2023-05-20T18:26:30.311Z,55.80
2023-05-20T18:29:34.554Z,55.85
2023-05-20T18:32:38.793Z,56.21
2023-05-20T18:35:41.803Z,56.69
2023-05-20T18:38:45.094Z,56.46
2023-05-20T18:41:48.190Z,56.88
2023-05-20T18:44:52.484Z,56.76
2023-05-20T18:47:57.527Z,57.32
2023-05-20T18:51:00.513Z,57.91
2023-05-20T18:54:03.398Z,57.65
2023-05-20T18:57:07.997Z,58.29
2023-05-20T19:00:13.480Z,58.43
2023-05-20T19:03:17.115Z,58.25
2023-05-20T19:06:19.963Z,58.32
2023-05-20T19:09:22.985Z,58.45
2023-05-20T19:12:26.137Z,58.62
2023-05-20T19:15:31.206Z,58.30
2023-05-20T19:18:33.959Z,58.51
2023-05-20T19:21:39.378Z,58.29
2023-05-20T19:24:42.243Z,58.77
2023-05-20T19:27:45.031Z,58.71
2023-05-20T19:30:49.855Z,58.48
2023-05-20T19:33:52.753Z,58.85
2023-05-20T19:36:56.785Z,58.85
2023-05-20T19:39:59.681Z,58.98
2023-05-20T19:43:02.508Z,59.03
2023-05-20T19:46:07.582Z,59.23
2023-05-20T19:49:10.513Z,59.67
2023-05-20T19:52:13.269Z,59.64
2023-05-20T19:55:16.431Z,59.53
2023-05-20T19:58:19.228Z,60.26
2023-05-20T20:01:23.386Z,59.92
2023-05-20T20:04:26.103Z,60.22
2023-05-20T20:07:29.033Z,60.39
2023-05-20T20:10:31.811Z,60.60
2023-05-20T20:13:34.559Z,60.57
2023-05-20T20:16:38.905Z,60.60
2023-05-20T20:19:42.189Z,61.03
2023-05-20T20:22:45.600Z,61.08
2023-05-20T20:25:50.532Z,61.23
2023-05-20T20:28:53.633Z,60.79
2023-05-20T20:31:59.233Z,61.43
2023-05-20T20:35:02.155Z,61.83
2023-05-20T20:38:09.629Z,62.18
2023-05-20T20:41:12.467Z,61.42
2023-05-20T20:44:18.704Z,61.99
2023-05-20T20:47:23.634Z,61.64
2023-05-20T20:50:26.549Z,62.30
2023-05-20T20:53:29.263Z,62.46
2023-05-20T20:56:36.718Z,61.95
2023-05-20T20:59:39.903Z,62.01
2023-05-20T21:02:44.549Z,62.10
2023-05-20T21:05:48.629Z,62.33
2023-05-20T21:08:53.073Z,62.28
2023-05-20T21:11:57.300Z,62.07
2023-05-20T21:15:00.402Z,62.30
2023-05-20T21:18:04.915Z,62.67
2023-05-20T21:21:12.132Z,62.45
2023-05-20T21:24:14.847Z,62.52
2023-05-20T21:27:17.850Z,63.35
2023-05-20T21:30:20.627Z,63.38
2023-05-20T21:33:25.235Z,62.96
2023-05-20T21:36:28.122Z,63.09
2023-05-20T21:39:30.849Z,63.65
2023-05-20T21:42:34.125Z,63.65
2023-05-20T21:45:37.008Z,63.43
2023-05-20T21:48:41.552Z,63.84
2023-05-20T21:51:44.341Z,64.17
2023-05-20T21:54:47.228Z,63.83
2023-05-20T21:57:50.150Z,63.76
2023-05-20T22:00:53.273Z,64.00
2023-05-20T22:03:57.628Z,63.57
2023-05-20T22:07:01.921Z,64.50
2023-05-20T22:10:05.317Z,64.18
2023-05-20T22:13:10.844Z,64.84
2023-05-20T22:16:14.396Z,64.28
2023-05-20T22:19:19.048Z,63.94
2023-05-20T22:22:21.929Z,64.38
2023-05-20T22:25:24.811Z,64.65
2023-05-20T22:28:27.597Z,64.76
2023-05-20T22:31:30.610Z,64.72
2023-05-20T22:34:34.756Z,64.71
2023-05-20T22:37:37.652Z,64.64
2023-05-20T22:40:43.273Z,64.96
2023-05-20T22:43:46.098Z,65.40
2023-05-20T22:46:49.030Z,65.15
2023-05-20T22:49:53.164Z,65.79
2023-05-20T22:52:56.018Z,66.56
2023-05-20T22:55:59.957Z,65.81
2023-05-20T22:59:03.154Z,66.52
2023-05-20T23:02:06.873Z,66.44
2023-05-20T23:05:11.844Z,66.13
2023-05-20T23:08:14.754Z,66.56
2023-05-20T23:11:17.769Z,66.40
2023-05-20T23:14:21.142Z,66.82
2023-05-20T23:17:24.030Z,66.78
2023-05-20T23:20:29.364Z,66.68
2023-05-20T23:23:32.437Z,66.92
2023-05-20T23:26:37.804Z,67.00
2023-05-20T23:29:40.813Z,67.22
2023-05-20T23:32:43.748Z,67.20
2023-05-20T23:35:48.052Z,67.26
2023-05-20T23:38:51.277Z,66.71
2023-05-20T23:41:54.203Z,67.41
2023-05-20T23:44:56.935Z,66.55
2023-05-20T23:48:01.334Z,67.17
2023-05-20T23:51:07.118Z,67.45
2023-05-20T23:54:09.889Z,67.09
2023-05-20T23:57:12.915Z,68.08
